Time,TemperatureF,DewpointF,PressureIn,WindDirection,WindDirectionDegrees,WindSpeedMPH,WindSpeedGustMPH,Humidity,HourlyPrecipIn,Conditions,Clouds,dailyrainin,SolarRadiationWatts/m^2,SoftwareType,DateUTC
2013-10-25 00:21:00,50.0,29.0,-100.00,East,91,0.0,5.0,44,0.00,,,0.00,0.000000,,2013-10-25 07:21:00,
2013-10-25 00:31:00,50.0,29.0,-100.00,East,91,0.0,5.0,44,0.00,,,0.00,0.000000,,2013-10-25 07:31:00,
2013-10-25 00:41:00,50.0,29.0,-100.00,East,91,0.0,5.0,44,0.00,,,0.00,0.000000,,2013-10-25 07:41:00,
2013-10-25 00:51:00,50.0,29.0,-100.00,East,91,0.0,5.0,44,0.00,,,0.00,0.000000,,2013-10-25 07:51:00,
2013-10-25 01:21:00,48.0,31.0,-100.00,ESE,106,0.0,6.0,52,0.00,,,0.00,0.000000,,2013-10-25 08:21:00,
2013-10-25 01:31:00,48.0,31.0,-100.00,ESE,106,0.0,6.0,52,0.00,,,0.00,0.000000,,2013-10-25 08:31:00,
2013-10-25 01:41:00,48.0,31.0,-100.00,ESE,106,0.0,6.0,52,0.00,,,0.00,0.000000,,2013-10-25 08:41:00,
2013-10-25 01:51:00,48.0,31.0,-100.00,ESE,106,0.0,6.0,52,0.00,,,0.00,0.000000,,2013-10-25 08:51:00,
2013-10-25 02:21:00,49.0,34.0,-100.00,ESE,110,0.0,5.0,55,0.00,,,0.00,0.000000,,2013-10-25 09:21:00,
2013-10-25 02:32:00,49.0,34.0,-100.00,ESE,110,0.0,5.0,55,0.00,,,0.00,0.000000,,2013-10-25 09:32:00,
2013-10-25 02:42:00,49.0,34.0,-100.00,ESE,110,0.0,5.0,55,0.00,,,0.00,0.000000,,2013-10-25 09:42:00,
2013-10-25 02:52:00,49.0,34.0,-100.00,ESE,110,0.0,5.0,55,0.00,,,0.00,0.000000,,2013-10-25 09:52:00,
2013-10-25 03:22:00,48.0,31.0,-100.00,East,100,0.0,6.0,52,0.00,,,0.00,0.000000,,2013-10-25 10:22:00,
2013-10-25 03:32:00,48.0,31.0,-100.00,East,100,0.0,6.0,52,0.00,,,0.00,0.000000,,2013-10-25 10:32:00,
2013-10-25 03:41:00,48.0,31.0,-100.00,East,100,0.0,6.0,52,0.00,,,0.00,0.000000,,2013-10-25 10:41:00,
2013-10-25 03:51:00,48.0,31.0,-100.00,East,100,0.0,6.0,52,0.00,,,0.00,0.000000,,2013-10-25 10:51:00,
2013-10-25 04:21:00,48.0,30.0,-100.00,East,88,0.0,5.0,50,0.00,,,0.00,0.000000,,2013-10-25 11:21:00,
2013-10-25 04:32:00,48.0,30.0,-100.00,East,88,0.0,5.0,50,0.00,,,0.00,0.000000,,2013-10-25 11:32:00,
2013-10-25 04:41:00,48.0,30.0,-100.00,East,88,0.0,5.0,50,0.00,,,0.00,0.000000,,2013-10-25 11:41:00,
2013-10-25 04:51:00,48.0,30.0,-100.00,East,88,0.0,5.0,50,0.00,,,0.00,0.000000,,2013-10-25 11:51:00,
2013-10-25 05:21:00,48.0,30.0,-100.00,ESE,107,0.0,4.0,50,0.00,,,0.00,0.000000,,2013-10-25 12:21:00,
2013-10-25 05:31:00,48.0,30.0,-100.00,ESE,107,0.0,4.0,50,0.00,,,0.00,0.000000,,2013-10-25 12:31:00,
2013-10-25 05:41:00,48.0,30.0,-100.00,ESE,107,0.0,4.0,50,0.00,,,0.00,0.000000,,2013-10-25 12:41:00,
2013-10-25 05:51:00,48.0,30.0,-100.00,ESE,107,0.0,4.0,50,0.00,,,0.00,0.000000,,2013-10-25 12:51:00,
2013-10-25 06:21:00,47.0,30.0,-100.00,East,92,0.0,6.0,51,0.00,,,0.00,0.000000,,2013-10-25 13:21:00,
2013-10-25 06:32:00,47.0,30.0,-100.00,East,92,0.0,6.0,51,0.00,,,0.00,0.000000,,2013-10-25 13:32:00,
2013-10-25 06:41:00,47.0,30.0,-100.00,East,92,0.0,6.0,51,0.00,,,0.00,0.000000,,2013-10-25 13:41:00,
2013-10-25 06:52:00,47.0,30.0,-100.00,East,92,0.0,6.0,51,0.00,,,0.00,0.000000,,2013-10-25 13:52:00,
2013-10-25 07:22:00,46.0,28.0,-100.00,East,95,0.0,5.0,50,0.00,,,0.00,0.000000,,2013-10-25 14:22:00,
2013-10-25 07:32:00,46.0,28.0,-100.00,East,95,0.0,5.0,50,0.00,,,0.00,0.000000,,2013-10-25 14:32:00,
2013-10-25 07:42:00,46.0,28.0,-100.00,East,95,0.0,5.0,50,0.00,,,0.00,0.000000,,2013-10-25 14:42:00,
2013-10-25 07:52:00,46.0,28.0,-100.00,East,95,0.0,5.0,50,0.00,,,0.00,0.000000,,2013-10-25 14:52:00,
2013-10-25 08:21:00,46.0,27.0,-100.00,East,95,0.0,6.0,48,0.00,,,-99.99,10.000000,,2013-10-25 15:21:00,
2013-10-25 08:33:00,46.0,27.0,-100.00,East,95,0.0,6.0,48,0.00,,,-99.99,10.000000,,2013-10-25 15:33:00,
2013-10-25 08:43:00,46.0,27.0,-100.00,East,95,0.0,6.0,48,0.00,,,-99.99,10.000000,,2013-10-25 15:43:00,
2013-10-25 08:53:00,46.0,27.0,-100.00,East,95,0.0,6.0,48,0.00,,,-99.99,10.000000,,2013-10-25 15:53:00,
2013-10-25 13:22:00,76.0,40.0,-100.00,NE,46,3.0,9.0,27,-99.99,,,0.00,814.000000,,2013-10-25 20:22:00,
2013-10-25 13:32:00,76.0,40.0,-100.00,NE,46,3.0,9.0,27,-99.99,,,0.00,814.000000,,2013-10-25 20:32:00,
2013-10-25 14:21:00,75.0,38.0,-100.00,WSW,237,4.0,9.0,26,0.00,,,0.00,800.000000,,2013-10-25 21:21:00,
2013-10-25 14:33:00,75.0,38.0,-100.00,WSW,237,4.0,9.0,26,0.00,,,0.00,800.000000,,2013-10-25 21:33:00,
2013-10-25 14:43:00,75.0,38.0,-100.00,WSW,237,4.0,9.0,26,0.00,,,0.00,800.000000,,2013-10-25 21:43:00,
2013-10-25 14:54:00,75.0,38.0,-100.00,WSW,237,4.0,9.0,26,0.00,,,0.00,800.000000,,2013-10-25 21:54:00,
2013-10-25 15:52:00,78.0,39.0,-100.00,WSW,253,2.0,8.0,25,0.00,,,0.00,706.000000,,2013-10-25 22:52:00,
2013-10-25 16:22:00,75.0,38.0,-100.00,WSW,239,4.0,9.0,26,-99.99,,,0.00,545.000000,,2013-10-25 23:22:00,
2013-10-25 16:34:00,75.0,38.0,-100.00,WSW,239,4.0,9.0,26,-99.99,,,0.00,545.000000,,2013-10-25 23:34:00,
2013-10-25 16:42:00,75.0,38.0,-100.00,WSW,239,4.0,9.0,26,-99.99,,,0.00,545.000000,,2013-10-25 23:42:00,
2013-10-25 16:52:00,75.0,38.0,-100.00,WSW,239,4.0,9.0,26,-99.99,,,0.00,545.000000,,2013-10-25 23:52:00,
2013-10-25 17:22:00,72.0,39.0,-100.00,SW,235,2.0,8.0,30,0.00,,,0.00,348.000000,,2013-10-26 00:22:00,
2013-10-25 17:32:00,72.0,39.0,-100.00,SW,235,2.0,8.0,30,0.00,,,0.00,348.000000,,2013-10-26 00:32:00,
2013-10-25 17:42:00,72.0,39.0,-100.00,SW,235,2.0,8.0,30,0.00,,,0.00,348.000000,,2013-10-26 00:42:00,
2013-10-25 17:52:00,72.0,39.0,-100.00,SW,235,2.0,8.0,30,0.00,,,0.00,348.000000,,2013-10-26 00:52:00,
2013-10-25 18:21:00,65.0,40.0,-100.00,SW,231,0.0,7.0,40,0.00,,,0.00,115.000000,,2013-10-26 01:21:00,
2013-10-25 18:32:00,65.0,40.0,-100.00,SW,231,0.0,7.0,40,0.00,,,0.00,115.000000,,2013-10-26 01:32:00,
2013-10-25 18:42:00,65.0,40.0,-100.00,SW,231,0.0,7.0,40,0.00,,,0.00,115.000000,,2013-10-26 01:42:00,
2013-10-25 18:52:00,65.0,40.0,-100.00,SW,231,0.0,7.0,40,0.00,,,0.00,115.000000,,2013-10-26 01:52:00,
2013-10-25 19:22:00,56.0,38.0,-100.00,ENE,76,0.0,5.0,50,0.00,,,-99.99,2.000000,,2013-10-26 02:22:00,
2013-10-25 19:32:00,56.0,38.0,-100.00,ENE,76,0.0,5.0,50,0.00,,,-99.99,2.000000,,2013-10-26 02:32:00,
2013-10-25 19:42:00,56.0,38.0,-100.00,ENE,76,0.0,5.0,50,0.00,,,-99.99,2.000000,,2013-10-26 02:42:00,
2013-10-25 19:52:00,56.0,38.0,-100.00,ENE,76,0.0,5.0,50,0.00,,,-99.99,2.000000,,2013-10-26 02:52:00,
2013-10-25 20:22:00,54.0,33.0,-100.00,ENE,75,0.0,0.0,45,0.00,,,0.00,0.000000,,2013-10-26 03:22:00,
2013-10-25 20:35:00,54.0,33.0,-100.00,ENE,75,0.0,0.0,45,0.00,,,0.00,0.000000,,2013-10-26 03:35:00,
2013-10-25 20:44:00,54.0,33.0,-100.00,ENE,75,0.0,0.0,45,0.00,,,0.00,0.000000,,2013-10-26 03:44:00,
2013-10-25 20:54:00,54.0,33.0,-100.00,ENE,75,0.0,0.0,45,0.00,,,0.00,0.000000,,2013-10-26 03:54:00,
2013-10-25 21:24:00,52.0,27.0,-100.00,East,86,0.0,0.0,37,0.00,,,0.00,0.000000,,2013-10-26 04:24:00,
2013-10-25 21:33:00,52.0,27.0,-100.00,East,86,0.0,0.0,37,0.00,,,0.00,0.000000,,2013-10-26 04:33:00,
2013-10-25 21:44:00,52.0,27.0,-100.00,East,86,0.0,0.0,37,0.00,,,0.00,0.000000,,2013-10-26 04:44:00,
2013-10-25 21:54:00,52.0,27.0,-100.00,East,86,0.0,0.0,37,0.00,,,0.00,0.000000,,2013-10-26 04:54:00,
2013-10-25 22:23:00,53.0,24.0,-100.00,ESE,103,0.0,0.0,32,0.00,,,0.00,0.000000,,2013-10-26 05:23:00,
2013-10-25 22:34:00,53.0,24.0,-100.00,ESE,103,0.0,0.0,32,0.00,,,0.00,0.000000,,2013-10-26 05:34:00,
2013-10-25 22:43:00,53.0,24.0,-100.00,ESE,103,0.0,0.0,32,0.00,,,0.00,0.000000,,2013-10-26 05:43:00,
2013-10-25 22:52:00,53.0,24.0,-100.00,ESE,103,0.0,0.0,32,0.00,,,0.00,0.000000,,2013-10-26 05:52:00,
2013-10-25 23:22:00,52.0,22.0,-100.00,East,97,1.0,4.0,31,0.00,,,0.00,0.000000,,2013-10-26 06:22:00,
2013-10-25 23:32:00,52.0,22.0,-100.00,East,97,1.0,4.0,31,0.00,,,0.00,0.000000,,2013-10-26 06:32:00,
2013-10-25 23:42:00,52.0,22.0,-100.00,East,97,1.0,4.0,31,0.00,,,0.00,0.000000,,2013-10-26 06:42:00,
2013-10-25 23:52:00,52.0,22.0,-100.00,East,97,1.0,4.0,31,0.00,,,0.00,0.000000,,2013-10-26 06:52:00,